Time;durP1;ratioP1;P1;durP2;ratioP2;P2;SDS_P1;SDS_P2;PMS_P1;PMS_P2;Temp;Humidity;BMP_temperature;BMP_pressure;BME280_temperature;BME280_humidity;BME280_pressure;Samples;Min_cycle;Max_cycle;Signal;HPM_P1;HPM_P2
2022/10/30 00:00:43;;;;;;;10.15;5.60;;;;;;;;;;4990159;28;20657;-80
2022/10/30 00:03:12;;;;;;;11.38;5.97;;;;;;;;;;4989102;28;20209;-80
2022/10/30 00:05:43;;;;;;;12.38;6.25;;;;;;;;;;4996602;28;20208;-80
2022/10/30 00:08:14;;;;;;;12.27;5.85;;;;;;;;;;4996172;28;20669;-80
2022/10/30 00:10:42;;;;;;;15.00;5.80;;;;;;;;;;4987731;28;20249;-80
2022/10/30 00:13:11;;;;;;;22.60;6.00;;;;;;;;;;4985416;28;20619;-80
2022/10/30 00:15:40;;;;;;;15.65;5.95;;;;;;;;;;4984292;28;20284;-80
2022/10/30 00:18:08;;;;;;;12.77;5.72;;;;;;;;;;4990948;28;20300;-80
2022/10/30 00:20:37;;;;;;;11.55;6.18;;;;;;;;;;4993336;28;20304;-79
2022/10/30 00:23:06;;;;;;;13.57;6.75;;;;;;;;;;4993971;28;20213;-80
2022/10/30 00:25:37;;;;;;;10.85;5.60;;;;;;;;;;4993881;28;20255;-80
2022/10/30 00:28:05;;;;;;;13.40;6.03;;;;;;;;;;4993746;28;20198;-80
2022/10/30 00:30:35;;;;;;;9.32;5.28;;;;;;;;;;4991953;28;20225;-80
2022/10/30 00:33:04;;;;;;;11.98;6.15;;;;;;;;;;4992929;28;20209;-79
2022/10/30 00:35:32;;;;;;;10.18;5.75;;;;;;;;;;4979851;28;20205;-80
2022/10/30 00:38:01;;;;;;;11.02;6.28;;;;;;;;;;4990004;28;20205;-80
2022/10/30 00:40:30;;;;;;;10.40;6.00;;;;;;;;;;4979732;28;20584;-80
2022/10/30 00:43:00;;;;;;;13.65;6.50;;;;;;;;;;4984586;28;20300;-81
2022/10/30 00:45:28;;;;;;;9.98;6.55;;;;;;;;;;4986767;28;20256;-80
2022/10/30 00:47:58;;;;;;;12.85;6.07;;;;;;;;;;4994326;28;20240;-80
2022/10/30 00:50:30;;;;;;;11.88;6.35;;;;;;;;;;4994169;28;20272;-80
2022/10/30 00:53:00;;;;;;;8.98;6.70;;;;;;;;;;4993151;28;20220;-80
2022/10/30 00:55:31;;;;;;;13.48;6.25;;;;;;;;;;4993568;28;20201;-80
2022/10/30 00:58:02;;;;;;;10.70;6.37;;;;;;;;;;4983945;28;20232;-79
2022/10/30 01:00:31;;;;;;;10.48;6.03;;;;;;;;;;4992721;28;20224;-80
2022/10/30 01:03:00;;;;;;;9.55;5.97;;;;;;;;;;4993688;28;20202;-80
2022/10/30 01:05:29;;;;;;;15.40;7.00;;;;;;;;;;4991655;28;20233;-79
2022/10/30 01:07:58;;;;;;;12.80;6.70;;;;;;;;;;4993614;28;20251;-80
2022/10/30 01:10:27;;;;;;;12.65;6.25;;;;;;;;;;4993481;28;20229;-80
2022/10/30 01:12:56;;;;;;;15.98;6.78;;;;;;;;;;4993796;28;20233;-79
2022/10/30 01:15:29;;;;;;;11.55;6.40;;;;;;;;;;4992651;28;20591;-80
2022/10/30 01:18:03;;;;;;;11.88;6.68;;;;;;;;;;4993390;28;20613;-80
2022/10/30 01:20:44;;;;;;;11.83;6.80;;;;;;;;;;4987609;28;20317;-80
2022/10/30 01:23:20;;;;;;;12.73;6.82;;;;;;;;;;4993562;28;20725;-79
2022/10/30 01:25:54;;;;;;;12.25;6.78;;;;;;;;;;4993430;28;20673;-78
2022/10/30 01:28:28;;;;;;;11.23;5.88;;;;;;;;;;4987014;28;20239;-79
2022/10/30 01:31:03;;;;;;;9.30;6.07;;;;;;;;;;4993214;28;20312;-79
2022/10/30 01:33:39;;;;;;;15.60;5.93;;;;;;;;;;4992725;28;20201;-79
2022/10/30 01:36:09;;;;;;;16.35;6.25;;;;;;;;;;4993220;28;20583;-79
2022/10/30 01:38:39;;;;;;;11.38;5.80;;;;;;;;;;4974331;28;20230;-78
2022/10/30 01:41:08;;;;;;;13.48;5.43;;;;;;;;;;4984722;28;20761;-79
2022/10/30 01:43:37;;;;;;;11.40;5.85;;;;;;;;;;4994550;28;20689;-80
2022/10/30 01:46:16;;;;;;;11.18;5.80;;;;;;;;;;4997080;28;20312;-80
2022/10/30 01:49:06;;;;;;;10.93;6.00;;;;;;;;;;4996876;28;20619;-79
2022/10/30 01:51:41;;;;;;;12.77;5.90;;;;;;;;;;4997385;28;20395;-79
2022/10/30 01:54:14;;;;;;;12.50;5.90;;;;;;;;;;4996923;28;20255;-79
2022/10/30 01:57:00;;;;;;;9.38;5.40;;;;;;;;;;4991816;28;20229;-79
2022/10/30 01:59:32;;;;;;;11.27;5.70;;;;;;;;;;4997022;28;20194;-80
2022/10/30 02:02:02;;;;;;;11.15;5.20;;;;;;;;;;4997235;28;20279;-79
2022/10/30 02:04:31;;;;;;;9.30;5.57;;;;;;;;;;4996764;28;20209;-79
2022/10/30 02:06:59;;;;;;;9.95;4.65;;;;;;;;;;4996778;28;20296;-79
2022/10/30 02:09:28;;;;;;;9.85;5.30;;;;;;;;;;4996642;28;20287;-80
2022/10/30 02:11:57;;;;;;;13.60;5.50;;;;;;;;;;4977405;28;20256;-80
2022/10/30 02:14:27;;;;;;;10.30;5.07;;;;;;;;;;4990258;28;20251;-80
2022/10/30 02:16:57;;;;;;;13.55;5.03;;;;;;;;;;4996208;28;20236;-80
2022/10/30 02:19:27;;;;;;;10.25;5.05;;;;;;;;;;4996412;28;20201;-80
2022/10/30 02:21:57;;;;;;;33.22;6.65;;;;;;;;;;4996426;28;20766;-79
2022/10/30 02:24:26;;;;;;;16.98;5.03;;;;;;;;;;4989573;28;20205;-80
2022/10/30 02:26:54;;;;;;;18.75;5.18;;;;;;;;;;4981189;28;20230;-79
2022/10/30 02:29:23;;;;;;;9.98;5.32;;;;;;;;;;4995156;28;20245;-79
2022/10/30 02:31:51;;;;;;;11.23;4.70;;;;;;;;;;4979152;28;20226;-79
2022/10/30 02:34:20;;;;;;;10.80;4.70;;;;;;;;;;4981177;28;20256;-80
2022/10/30 02:36:48;;;;;;;8.52;4.45;;;;;;;;;;4996273;28;20267;-79
2022/10/30 02:39:20;;;;;;;13.50;5.40;;;;;;;;;;4985822;28;20608;-80
2022/10/30 02:41:48;;;;;;;9.15;4.75;;;;;;;;;;4995085;28;20225;-80
2022/10/30 02:44:17;;;;;;;11.82;5.25;;;;;;;;;;4995351;28;20243;-80
2022/10/30 02:46:45;;;;;;;8.73;4.90;;;;;;;;;;4995691;28;20260;-80
2022/10/30 02:49:14;;;;;;;11.35;5.38;;;;;;;;;;4985335;28;20244;-80
2022/10/30 02:51:42;;;;;;;8.40;4.75;;;;;;;;;;4991714;28;20232;-80
2022/10/30 02:54:11;;;;;;;13.27;5.13;;;;;;;;;;4995157;28;20268;-80
2022/10/30 02:56:42;;;;;;;10.85;5.40;;;;;;;;;;4995400;28;20287;-80
2022/10/30 02:59:10;;;;;;;10.25;5.28;;;;;;;;;;4996047;28;20209;-80
2022/10/30 03:01:39;;;;;;;9.27;5.15;;;;;;;;;;4994895;28;20737;-80
2022/10/30 03:04:07;;;;;;;8.40;5.00;;;;;;;;;;4995552;28;20259;-80
2022/10/30 03:06:36;;;;;;;9.05;5.00;;;;;;;;;;4993038;28;20300;-80
2022/10/30 03:09:04;;;;;;;10.00;5.10;;;;;;;;;;4989158;28;20213;-80
2022/10/30 03:11:34;;;;;;;20.77;5.25;;;;;;;;;;4994265;28;20256;-79
2022/10/30 03:14:04;;;;;;;8.40;4.57;;;;;;;;;;4995446;28;20235;-80
2022/10/30 03:16:32;;;;;;;8.38;4.85;;;;;;;;;;4995223;28;20304;-80
2022/10/30 03:19:01;;;;;;;10.75;5.05;;;;;;;;;;4994831;28;20205;-79
2022/10/30 03:21:29;;;;;;;10.07;4.80;;;;;;;;;;4994398;28;20636;-79
2022/10/30 03:23:58;;;;;;;11.35;4.93;;;;;;;;;;4994038;28;20283;-80
2022/10/30 03:26:26;;;;;;;10.00;4.97;;;;;;;;;;4981819;28;20713;-80
2022/10/30 03:28:55;;;;;;;11.98;4.85;;;;;;;;;;4995343;28;20255;-79
2022/10/30 03:31:25;;;;;;;10.63;5.30;;;;;;;;;;4994608;28;20256;-80
2022/10/30 03:33:53;;;;;;;12.38;5.15;;;;;;;;;;4994622;28;20352;-80
2022/10/30 03:36:22;;;;;;;8.43;4.97;;;;;;;;;;4994885;28;20268;-79
2022/10/30 03:38:50;;;;;;;12.13;5.43;;;;;;;;;;4993835;28;20241;-79
2022/10/30 03:41:19;;;;;;;9.80;5.18;;;;;;;;;;4984560;28;20229;-80
2022/10/30 03:43:47;;;;;;;9.77;5.07;;;;;;;;;;4995009;28;20288;-79
2022/10/30 03:46:16;;;;;;;11.60;5.18;;;;;;;;;;4994414;28;20308;-79
2022/10/30 03:48:49;;;;;;;10.23;5.10;;;;;;;;;;4994476;28;20235;-80
2022/10/30 03:51:17;;;;;;;9.90;4.97;;;;;;;;;;4994809;28;20256;-80
2022/10/30 03:53:46;;;;;;;10.15;5.38;;;;;;;;;;4991920;28;20241;-79
2022/10/30 03:56:14;;;;;;;7.95;4.72;;;;;;;;;;4985224;28;20613;-79
2022/10/30 03:58:43;;;;;;;10.15;5.15;;;;;;;;;;4975199;28;20666;-80
2022/10/30 04:01:11;;;;;;;7.53;4.93;;;;;;;;;;4981148;28;20315;-80
2022/10/30 04:03:40;;;;;;;12.18;4.95;;;;;;;;;;4993494;28;20658;-79
2022/10/30 04:06:10;;;;;;;10.68;4.78;;;;;;;;;;4994136;28;20312;-79
2022/10/30 04:08:38;;;;;;;11.85;5.28;;;;;;;;;;4994158;28;20252;-80
2022/10/30 04:11:07;;;;;;;11.80;5.18;;;;;;;;;;4994515;28;20229;-80
2022/10/30 04:13:35;;;;;;;10.43;5.15;;;;;;;;;;4985838;28;20209;-79
2022/10/30 04:16:05;;;;;;;12.95;5.03;;;;;;;;;;4982558;28;20618;-80
2022/10/30 04:18:34;;;;;;;12.63;4.90;;;;;;;;;;4992859;28;20654;-79
2022/10/30 04:21:02;;;;;;;11.07;4.70;;;;;;;;;;4989794;28;20253;-79
2022/10/30 04:23:32;;;;;;;10.45;4.97;;;;;;;;;;4994295;28;20284;-78
2022/10/30 04:26:01;;;;;;;14.60;5.15;;;;;;;;;;4975658;28;20241;-80
2022/10/30 04:28:29;;;;;;;9.93;4.97;;;;;;;;;;4992324;28;20288;-80
2022/10/30 04:30:58;;;;;;;8.90;5.20;;;;;;;;;;4993186;28;20248;-79
2022/10/30 04:33:27;;;;;;;12.32;5.07;;;;;;;;;;4993240;28;20213;-80
2022/10/30 04:35:56;;;;;;;11.13;4.93;;;;;;;;;;4993974;28;20219;-79
2022/10/30 04:38:24;;;;;;;12.05;5.25;;;;;;;;;;4994033;28;20233;-80
2022/10/30 04:40:54;;;;;;;12.85;5.55;;;;;;;;;;4978565;28;20225;-80
2022/10/30 04:43:22;;;;;;;10.55;5.10;;;;;;;;;;4974361;28;20645;-79
2022/10/30 04:45:51;;;;;;;9.80;5.18;;;;;;;;;;4982211;28;20197;-80
2022/10/30 04:48:19;;;;;;;10.68;5.28;;;;;;;;;;4993315;28;20295;-79
2022/10/30 04:50:48;;;;;;;8.95;4.88;;;;;;;;;;4993428;28;20249;-79
2022/10/30 04:53:18;;;;;;;9.85;5.47;;;;;;;;;;4988244;28;20730;-80
2022/10/30 04:55:46;;;;;;;12.30;5.82;;;;;;;;;;4992556;28;20674;-79
2022/10/30 04:58:16;;;;;;;8.77;5.25;;;;;;;;;;4978408;28;20619;-79
2022/10/30 05:00:44;;;;;;;10.75;5.07;;;;;;;;;;4990323;28;20628;-80
2022/10/30 05:03:18;;;;;;;15.00;5.50;;;;;;;;;;4992466;28;20720;-80
2022/10/30 05:05:46;;;;;;;11.70;6.07;;;;;;;;;;4988703;28;20293;-80
2022/10/30 05:08:15;;;;;;;13.80;5.68;;;;;;;;;;4980918;28;20235;-80
2022/10/30 05:10:43;;;;;;;9.32;5.25;;;;;;;;;;4985930;28;20253;-78
2022/10/30 05:13:12;;;;;;;9.25;5.32;;;;;;;;;;4982758;28;20237;-79
2022/10/30 05:15:42;;;;;;;12.05;5.55;;;;;;;;;;4992804;28;20240;-79
2022/10/30 05:18:10;;;;;;;9.32;5.72;;;;;;;;;;4996726;28;20718;-79
2022/10/30 05:20:39;;;;;;;32.50;6.80;;;;;;;;;;4988088;28;20267;-79
2022/10/30 05:23:07;;;;;;;12.55;5.30;;;;;;;;;;4991585;28;20201;-79
2022/10/30 05:25:35;;;;;;;11.95;5.43;;;;;;;;;;4997219;28;20205;-79
2022/10/30 05:28:05;;;;;;;10.35;5.10;;;;;;;;;;4996031;28;20308;-79
2022/10/30 05:30:34;;;;;;;8.47;5.00;;;;;;;;;;4996151;28;20236;-79
2022/10/30 05:33:05;;;;;;;9.30;5.50;;;;;;;;;;4995688;28;20245;-78
2022/10/30 05:35:35;;;;;;;9.35;5.40;;;;;;;;;;4995214;28;20288;-79
2022/10/30 05:38:05;;;;;;;14.05;5.53;;;;;;;;;;4996589;28;20202;-79
2022/10/30 05:40:33;;;;;;;13.55;5.88;;;;;;;;;;4990202;28;20605;-79
2022/10/30 05:43:02;;;;;;;9.45;5.85;;;;;;;;;;4996630;28;20237;-79
2022/10/30 05:45:31;;;;;;;11.63;5.90;;;;;;;;;;4996303;28;20244;-79
2022/10/30 05:48:00;;;;;;;26.58;6.50;;;;;;;;;;4996811;28;20244;-79
2022/10/30 05:50:31;;;;;;;14.45;6.20;;;;;;;;;;4996732;28;20221;-79
2022/10/30 05:53:00;;;;;;;12.30;5.83;;;;;;;;;;4996304;28;20258;-80
2022/10/30 05:55:28;;;;;;;21.70;6.90;;;;;;;;;;4996993;28;20229;-80
2022/10/30 05:57:57;;;;;;;37.37;7.00;;;;;;;;;;4995575;28;20255;-79
2022/10/30 06:00:27;;;;;;;27.13;5.93;;;;;;;;;;4995954;28;20237;-78
2022/10/30 06:03:00;;;;;;;8.97;5.47;;;;;;;;;;4996645;28;20234;-78
2022/10/30 06:05:32;;;;;;;16.20;5.50;;;;;;;;;;4996739;28;20287;-78
2022/10/30 06:08:00;;;;;;;9.53;5.60;;;;;;;;;;4994958;28;20675;-78
2022/10/30 06:10:29;;;;;;;12.50;5.30;;;;;;;;;;4993412;28;20652;-79
2022/10/30 06:12:58;;;;;;;11.33;5.90;;;;;;;;;;4984329;28;20232;-79
2022/10/30 06:15:29;;;;;;;9.03;5.27;;;;;;;;;;4990060;28;20209;-79
2022/10/30 06:17:57;;;;;;;10.07;5.43;;;;;;;;;;4995943;28;20197;-78
2022/10/30 06:20:27;;;;;;;11.33;5.60;;;;;;;;;;4995086;28;20315;-79
2022/10/30 06:22:58;;;;;;;13.67;5.53;;;;;;;;;;4995669;28;20265;-79
2022/10/30 06:25:27;;;;;;;7.93;5.83;;;;;;;;;;4995868;28;20665;-79
2022/10/30 06:27:57;;;;;;;10.20;5.53;;;;;;;;;;4994156;28;20308;-79
2022/10/30 06:30:26;;;;;;;9.17;5.67;;;;;;;;;;4995203;28;20235;-78
2022/10/30 06:32:57;;;;;;;13.03;6.60;;;;;;;;;;4995680;28;20202;-79
2022/10/30 06:35:26;;;;;;;11.77;5.50;;;;;;;;;;4995081;28;20201;-79
2022/10/30 06:37:55;;;;;;;10.93;6.03;;;;;;;;;;4992500;28;20237;-78
2022/10/30 06:40:25;;;;;;;10.33;5.70;;;;;;;;;;4993128;28;20249;-78
2022/10/30 06:42:54;;;;;;;11.43;5.90;;;;;;;;;;4994196;28;20201;-79
2022/10/30 06:45:24;;;;;;;11.97;6.13;;;;;;;;;;4993745;28;20233;-79
2022/10/30 06:47:52;;;;;;;10.20;6.30;;;;;;;;;;4986792;28;20256;-79
2022/10/30 06:50:23;;;;;;;8.93;5.97;;;;;;;;;;5004768;28;20225;-79
2022/10/30 06:52:54;;;;;;;8.07;6.00;;;;;;;;;;4996341;28;20662;-79
2022/10/30 06:55:22;;;;;;;10.60;6.47;;;;;;;;;;4995793;28;20307;-79
2022/10/30 06:57:56;;;;;;;10.63;6.57;;;;;;;;;;4987604;28;20240;-78
2022/10/30 07:00:25;;;;;;;9.97;7.33;;;;;;;;;;4995237;28;20225;-78
2022/10/30 07:02:57;;;;;;;10.90;7.17;;;;;;;;;;4995812;28;20214;-79
2022/10/30 07:05:27;;;;;;;11.77;7.03;;;;;;;;;;4995502;28;20211;-79
2022/10/30 07:07:57;;;;;;;12.67;7.23;;;;;;;;;;4991446;28;20312;-79
2022/10/30 07:10:25;;;;;;;12.40;6.90;;;;;;;;;;4995125;28;20256;-79
2022/10/30 07:12:57;;;;;;;12.90;6.83;;;;;;;;;;4995772;28;20275;-78
2022/10/30 07:15:27;;;;;;;10.57;6.70;;;;;;;;;;4995224;28;20212;-79
2022/10/30 07:17:56;;;;;;;13.43;7.07;;;;;;;;;;4989907;28;20252;-78
2022/10/30 07:20:26;;;;;;;13.73;7.20;;;;;;;;;;4994671;28;20567;-79
2022/10/30 07:22:55;;;;;;;9.50;7.00;;;;;;;;;;4994949;28;20252;-78
2022/10/30 07:25:23;;;;;;;13.23;6.90;;;;;;;;;;4995455;28;20209;-79
2022/10/30 07:27:53;;;;;;;9.97;6.80;;;;;;;;;;4995469;28;20686;-79
2022/10/30 07:30:23;;;;;;;12.67;7.07;;;;;;;;;;4992427;28;20768;-79
2022/10/30 07:32:59;;;;;;;13.10;6.60;;;;;;;;;;4976635;28;21118;-78
2022/10/30 07:35:28;;;;;;;10.10;6.73;;;;;;;;;;4983273;28;20217;-79
2022/10/30 07:37:57;;;;;;;10.47;6.40;;;;;;;;;;4992158;28;20717;-78
2022/10/30 07:40:25;;;;;;;9.83;6.77;;;;;;;;;;4993381;28;20709;-79
2022/10/30 07:42:57;;;;;;;9.33;6.20;;;;;;;;;;4995385;28;20690;-78
2022/10/30 07:45:28;;;;;;;12.40;6.43;;;;;;;;;;4993277;28;20205;-78
2022/10/30 07:47:57;;;;;;;11.43;6.17;;;;;;;;;;4988519;28;20277;-79
2022/10/30 07:50:26;;;;;;;8.33;6.20;;;;;;;;;;4992707;28;20221;-79
2022/10/30 07:52:55;;;;;;;13.23;6.37;;;;;;;;;;4994127;28;20654;-79
2022/10/30 07:55:23;;;;;;;11.17;6.17;;;;;;;;;;4993717;28;20240;-79
2022/10/30 07:57:52;;;;;;;9.07;5.47;;;;;;;;;;4993207;28;20213;-79
2022/10/30 08:00:20;;;;;;;8.73;5.90;;;;;;;;;;4994041;28;20661;-79
2022/10/30 08:02:51;;;;;;;13.53;6.00;;;;;;;;;;4993360;28;20209;-79
2022/10/30 08:05:20;;;;;;;10.57;6.13;;;;;;;;;;4993505;28;20197;-79
2022/10/30 08:07:57;;;;;;;9.70;5.63;;;;;;;;;;4974728;28;20678;-79
2022/10/30 08:10:26;;;;;;;8.40;5.10;;;;;;;;;;4986537;28;20260;-79
2022/10/30 08:12:54;;;;;;;12.65;5.78;;;;;;;;;;4994280;28;20204;-79
2022/10/30 08:15:23;;;;;;;9.43;5.15;;;;;;;;;;4993351;28;20212;-78
2022/10/30 08:17:53;;;;;;;12.45;5.65;;;;;;;;;;4993177;28;20217;-79
2022/10/30 08:20:23;;;;;;;7.50;5.05;;;;;;;;;;4993151;28;20228;-79
2022/10/30 08:22:52;;;;;;;12.02;5.85;;;;;;;;;;4993277;28;20236;-79
2022/10/30 08:25:22;;;;;;;11.38;5.63;;;;;;;;;;4992953;28;20213;-79
2022/10/30 08:27:51;;;;;;;11.40;5.68;;;;;;;;;;4994025;28;20261;-79
2022/10/30 08:30:20;;;;;;;11.90;5.57;;;;;;;;;;4993753;28;20263;-79
2022/10/30 08:32:48;;;;;;;9.95;5.25;;;;;;;;;;4993752;28;20212;-79
2022/10/30 08:35:18;;;;;;;14.27;5.30;;;;;;;;;;4990892;28;20217;-78
2022/10/30 08:37:47;;;;;;;13.60;5.60;;;;;;;;;;4993375;28;20205;-79
2022/10/30 08:40:16;;;;;;;10.95;5.70;;;;;;;;;;4984587;28;20258;-79
2022/10/30 08:42:51;;;;;;;11.77;5.47;;;;;;;;;;4990351;28;20225;-79
2022/10/30 08:45:19;;;;;;;15.63;5.38;;;;;;;;;;4992054;28;20224;-79
2022/10/30 08:47:48;;;;;;;8.38;5.13;;;;;;;;;;4991987;28;20296;-79
2022/10/30 08:50:16;;;;;;;12.48;5.65;;;;;;;;;;4992640;28;20590;-79
2022/10/30 08:52:46;;;;;;;8.02;4.75;;;;;;;;;;4990755;28;20201;-79
2022/10/30 08:55:21;;;;;;;10.00;4.95;;;;;;;;;;4985265;28;20292;-79
2022/10/30 08:57:49;;;;;;;11.32;4.82;;;;;;;;;;4993631;28;20284;-79
2022/10/30 09:00:18;;;;;;;8.75;5.00;;;;;;;;;;4993233;28;20283;-79
2022/10/30 09:02:46;;;;;;;10.88;5.00;;;;;;;;;;4989680;28;20296;-79
2022/10/30 09:05:15;;;;;;;8.77;4.90;;;;;;;;;;4992334;28;20205;-79
2022/10/30 09:07:43;;;;;;;12.35;5.50;;;;;;;;;;4990001;28;20201;-78
2022/10/30 09:10:13;;;;;;;10.52;4.85;;;;;;;;;;4990011;28;20306;-79
2022/10/30 09:12:42;;;;;;;13.57;4.55;;;;;;;;;;4992482;28;20241;-79
2022/10/30 09:15:10;;;;;;;10.57;4.70;;;;;;;;;;4992199;28;20270;-79
2022/10/30 09:17:39;;;;;;;11.88;5.25;;;;;;;;;;4993235;28;20244;-79
2022/10/30 09:20:07;;;;;;;11.38;4.75;;;;;;;;;;4991378;28;20203;-79
2022/10/30 09:22:41;;;;;;;8.85;4.63;;;;;;;;;;4992980;28;20618;-79
2022/10/30 09:25:10;;;;;;;9.68;4.80;;;;;;;;;;4988805;28;20295;-79
2022/10/30 09:27:40;;;;;;;10.63;4.85;;;;;;;;;;4993139;28;20287;-79
2022/10/30 09:30:09;;;;;;;11.45;4.57;;;;;;;;;;4993238;28;20296;-79
2022/10/30 09:32:37;;;;;;;10.32;5.28;;;;;;;;;;4992803;28;20600;-80
2022/10/30 09:35:06;;;;;;;9.85;4.90;;;;;;;;;;4980385;28;20639;-79
2022/10/30 09:37:35;;;;;;;10.90;5.10;;;;;;;;;;4973513;28;20292;-78
2022/10/30 09:40:04;;;;;;;13.57;5.18;;;;;;;;;;4984024;28;20233;-78
2022/10/30 09:42:45;;;;;;;9.07;4.80;;;;;;;;;;4987299;28;20206;-78
2022/10/30 09:45:34;;;;;;;10.10;4.40;;;;;;;;;;4992403;28;20233;-78
2022/10/30 09:48:09;;;;;;;9.07;4.75;;;;;;;;;;4978009;28;20725;-79
2022/10/30 09:50:40;;;;;;;8.82;4.70;;;;;;;;;;4972988;28;20261;-78
2022/10/30 09:53:12;;;;;;;10.95;4.57;;;;;;;;;;4981050;28;20332;-78
2022/10/30 09:55:42;;;;;;;9.57;4.82;;;;;;;;;;4993165;28;20208;-79
2022/10/30 09:58:23;;;;;;;9.25;4.60;;;;;;;;;;4991265;28;20248;-79
2022/10/30 10:00:54;;;;;;;11.07;4.63;;;;;;;;;;4993033;28;20217;-78
2022/10/30 10:03:32;;;;;;;11.02;4.70;;;;;;;;;;4996177;28;20208;-78
2022/10/30 10:06:01;;;;;;;9.65;4.38;;;;;;;;;;4997006;28;20228;-78
2022/10/30 10:08:33;;;;;;;9.02;4.82;;;;;;;;;;4988415;28;20718;-78
2022/10/30 10:11:03;;;;;;;9.18;4.40;;;;;;;;;;4977425;28;20289;-78
2022/10/30 10:13:37;;;;;;;11.60;3.97;;;;;;;;;;4982317;28;20654;-78
2022/10/30 10:16:08;;;;;;;7.22;4.68;;;;;;;;;;4977185;28;20202;-78
2022/10/30 10:18:40;;;;;;;8.38;4.20;;;;;;;;;;4983605;28;20654;-78
2022/10/30 10:21:12;;;;;;;10.45;5.20;;;;;;;;;;4996319;28;20645;-78
2022/10/30 10:23:46;;;;;;;12.30;4.82;;;;;;;;;;4989740;28;20237;-78
2022/10/30 10:26:21;;;;;;;10.45;4.55;;;;;;;;;;4976856;28;20190;-78
2022/10/30 10:28:57;;;;;;;12.35;4.90;;;;;;;;;;4976719;28;20205;-78
2022/10/30 10:31:32;;;;;;;7.75;4.32;;;;;;;;;;4979298;28;20749;-78
2022/10/30 10:34:03;;;;;;;6.93;3.53;;;;;;;;;;4990802;28;20229;-79
2022/10/30 10:36:34;;;;;;;7.72;3.63;;;;;;;;;;4982803;28;20245;-79
2022/10/30 10:39:12;;;;;;;11.93;5.00;;;;;;;;;;4996004;28;20236;-78
2022/10/30 10:41:52;;;;;;;11.10;4.80;;;;;;;;;;4995699;28;20256;-78
2022/10/30 10:44:29;;;;;;;8.40;4.45;;;;;;;;;;4996077;28;20185;-79
2022/10/30 10:47:02;;;;;;;10.00;3.17;;;;;;;;;;4994951;28;20699;-79
2022/10/30 10:49:44;;;;;;;7.47;4.00;;;;;;;;;;4994719;28;20219;-78
2022/10/30 10:52:14;;;;;;;12.82;3.90;;;;;;;;;;4996066;28;20228;-79
2022/10/30 10:54:44;;;;;;;9.00;4.68;;;;;;;;;;4993642;28;20307;-79
2022/10/30 10:57:17;;;;;;;8.57;4.30;;;;;;;;;;4995315;28;20243;-79
2022/10/30 10:59:48;;;;;;;7.32;4.65;;;;;;;;;;4990002;28;20233;-78
2022/10/30 11:02:25;;;;;;;6.85;4.20;;;;;;;;;;4994663;28;20256;-79
2022/10/30 11:04:56;;;;;;;11.32;4.65;;;;;;;;;;4992502;28;20239;-78
2022/10/30 11:07:28;;;;;;;8.60;4.47;;;;;;;;;;4991344;28;20205;-78
2022/10/30 11:09:57;;;;;;;9.38;4.78;;;;;;;;;;4994305;28;20243;-78
2022/10/30 11:12:27;;;;;;;11.80;4.88;;;;;;;;;;4997130;28;20255;-79
2022/10/30 11:15:05;;;;;;;9.70;4.70;;;;;;;;;;4992985;28;20576;-78
2022/10/30 11:17:37;;;;;;;8.85;4.63;;;;;;;;;;4992325;28;20198;-78
2022/10/30 11:20:15;;;;;;;9.50;4.30;;;;;;;;;;4988210;28;20200;-79
2022/10/30 11:22:45;;;;;;;10.18;4.60;;;;;;;;;;4989331;28;20240;-79
2022/10/30 11:25:19;;;;;;;8.57;4.30;;;;;;;;;;4988634;28;20288;-79
2022/10/30 11:27:55;;;;;;;12.30;4.32;;;;;;;;;;4983377;28;20202;-79
2022/10/30 11:30:27;;;;;;;12.70;4.18;;;;;;;;;;4989340;28;20316;-79
2022/10/30 11:32:56;;;;;;;7.55;4.38;;;;;;;;;;4990162;28;20211;-78
2022/10/30 11:35:25;;;;;;;12.80;4.65;;;;;;;;;;4989405;28;20554;-78
2022/10/30 11:38:12;;;;;;;10.90;4.35;;;;;;;;;;4993818;28;20296;-78
2022/10/30 11:40:47;;;;;;;10.98;4.40;;;;;;;;;;4987530;28;20578;-78
2022/10/30 11:43:18;;;;;;;11.77;4.65;;;;;;;;;;4993893;28;20201;-79
2022/10/30 11:45:48;;;;;;;9.63;4.50;;;;;;;;;;4993937;28;20284;-78
2022/10/30 11:48:21;;;;;;;9.90;4.38;;;;;;;;;;4993055;28;20260;-78
2022/10/30 11:50:51;;;;;;;7.72;4.30;;;;;;;;;;4993744;28;20253;-79
2022/10/30 11:53:23;;;;;;;8.85;4.07;;;;;;;;;;4993457;28;20209;-79
2022/10/30 11:55:51;;;;;;;8.05;3.90;;;;;;;;;;4988810;28;20261;-78
2022/10/30 11:58:23;;;;;;;10.63;5.15;;;;;;;;;;4983332;28;20264;-79
2022/10/30 12:01:01;;;;;;;9.93;4.40;;;;;;;;;;4993635;28;20296;-78
2022/10/30 12:03:31;;;;;;;8.32;4.13;;;;;;;;;;4989510;28;20293;-78
2022/10/30 12:06:09;;;;;;;11.77;4.25;;;;;;;;;;4991270;28;20236;-79
2022/10/30 12:08:38;;;;;;;9.60;4.22;;;;;;;;;;4993313;28;20284;-78
2022/10/30 12:11:07;;;;;;;10.40;4.00;;;;;;;;;;4984532;28;20257;-79
2022/10/30 12:13:40;;;;;;;11.35;3.85;;;;;;;;;;4993707;28;20198;-79
2022/10/30 12:16:20;;;;;;;11.18;4.43;;;;;;;;;;4993116;28;20212;-78
2022/10/30 12:18:57;;;;;;;8.43;3.90;;;;;;;;;;4990261;28;20231;-78
2022/10/30 12:21:27;;;;;;;7.95;3.70;;;;;;;;;;4993049;28;20221;-79
2022/10/30 12:23:57;;;;;;;10.60;4.28;;;;;;;;;;4991901;28;20663;-79
2022/10/30 12:26:26;;;;;;;11.57;4.10;;;;;;;;;;4992253;28;20211;-78
2022/10/30 12:28:58;;;;;;;7.57;3.10;;;;;;;;;;4994309;28;20204;-79
2022/10/30 12:31:33;;;;;;;10.52;5.05;;;;;;;;;;4974204;28;20260;-79
2022/10/30 12:34:06;;;;;;;8.25;4.55;;;;;;;;;;4990299;28;20299;-79
2022/10/30 12:36:37;;;;;;;10.85;4.13;;;;;;;;;;4980742;28;20205;-78
2022/10/30 12:39:10;;;;;;;12.80;4.38;;;;;;;;;;4989786;28;20259;-79
2022/10/30 12:41:43;;;;;;;9.90;4.38;;;;;;;;;;4992885;28;20221;-79
2022/10/30 12:44:15;;;;;;;10.18;4.03;;;;;;;;;;4993748;28;20201;-79
2022/10/30 12:46:47;;;;;;;11.60;4.35;;;;;;;;;;4992732;28;20247;-78
2022/10/30 12:49:21;;;;;;;8.10;3.80;;;;;;;;;;4993244;28;20201;-79
2022/10/30 12:51:52;;;;;;;8.07;4.07;;;;;;;;;;4993109;28;20264;-78
2022/10/30 12:54:24;;;;;;;6.65;3.45;;;;;;;;;;4988537;28;20316;-79
2022/10/30 12:56:57;;;;;;;8.80;4.55;;;;;;;;;;4983052;28;20226;-79
2022/10/30 12:59:30;;;;;;;9.38;3.88;;;;;;;;;;4989210;28;20200;-78
2022/10/30 13:02:05;;;;;;;9.93;4.22;;;;;;;;;;4991732;28;20316;-79
2022/10/30 13:04:36;;;;;;;7.97;4.40;;;;;;;;;;4992598;28;20674;-79
2022/10/30 13:07:09;;;;;;;7.90;3.95;;;;;;;;;;4991769;28;20606;-79
2022/10/30 13:09:40;;;;;;;9.38;4.45;;;;;;;;;;4983234;28;20277;-79
2022/10/30 13:12:10;;;;;;;8.48;4.10;;;;;;;;;;4987475;28;20235;-79
2022/10/30 13:14:41;;;;;;;12.05;4.55;;;;;;;;;;4993471;28;20216;-79
2022/10/30 13:17:12;;;;;;;12.45;4.43;;;;;;;;;;4990473;28;20204;-79
2022/10/30 13:19:41;;;;;;;8.20;3.88;;;;;;;;;;4993219;28;20636;-79
2022/10/30 13:22:14;;;;;;;8.82;4.50;;;;;;;;;;4988786;28;20698;-79
2022/10/30 13:24:50;;;;;;;11.40;4.18;;;;;;;;;;4987510;28;20201;-79
2022/10/30 13:27:22;;;;;;;4.90;2.72;;;;;;;;;;4987804;28;20287;-79
2022/10/30 13:30:00;;;;;;;8.27;3.63;;;;;;;;;;4985493;28;20217;-79
2022/10/30 13:32:40;;;;;;;10.90;4.65;;;;;;;;;;4990899;28;20224;-78
2022/10/30 13:35:19;;;;;;;13.43;4.20;;;;;;;;;;4990954;28;20374;-79
2022/10/30 13:37:50;;;;;;;8.80;4.45;;;;;;;;;;4995328;28;20197;-79
2022/10/30 13:40:22;;;;;;;10.88;4.65;;;;;;;;;;4995241;28;20260;-79
2022/10/30 13:42:56;;;;;;;11.02;4.40;;;;;;;;;;4992562;28;20252;-79
2022/10/30 13:45:33;;;;;;;8.15;4.20;;;;;;;;;;4996411;28;20696;-78
2022/10/30 13:48:08;;;;;;;9.00;4.13;;;;;;;;;;4999690;28;20205;-80
2022/10/30 13:50:43;;;;;;;9.60;4.68;;;;;;;;;;4996511;28;20252;-79
2022/10/30 13:53:16;;;;;;;11.65;4.15;;;;;;;;;;4993086;28;20270;-79
2022/10/30 13:55:45;;;;;;;10.65;4.47;;;;;;;;;;4993590;28;20656;-79
2022/10/30 13:58:18;;;;;;;7.53;3.38;;;;;;;;;;4995930;28;20628;-79
2022/10/30 14:00:53;;;;;;;10.65;4.78;;;;;;;;;;4996145;28;20695;-79
2022/10/30 14:03:29;;;;;;;10.35;4.55;;;;;;;;;;4996191;28;20295;-79
2022/10/30 14:06:03;;;;;;;7.40;4.45;;;;;;;;;;4991635;28;20197;-79
2022/10/30 14:08:36;;;;;;;13.68;4.47;;;;;;;;;;4989088;28;20197;-78
2022/10/30 14:11:11;;;;;;;10.30;4.72;;;;;;;;;;4989530;28;20236;-78
2022/10/30 14:13:46;;;;;;;8.48;4.80;;;;;;;;;;4995652;28;20578;-80
2022/10/30 14:16:30;;;;;;;11.45;4.70;;;;;;;;;;4994908;28;20205;-78
2022/10/30 14:19:04;;;;;;;10.15;4.40;;;;;;;;;;4992309;28;20705;-79
2022/10/30 14:21:50;;;;;;;7.85;4.40;;;;;;;;;;4995363;28;20742;-79
2022/10/30 14:24:20;;;;;;;8.13;4.32;;;;;;;;;;4993887;28;20255;-79
2022/10/30 14:26:51;;;;;;;12.23;4.90;;;;;;;;;;4995870;28;20201;-79
2022/10/30 14:29:47;;;;;;;10.30;4.60;;;;;;;;;;4982080;28;20243;-79
2022/10/30 14:32:34;;;;;;;10.48;4.78;;;;;;;;;;4994899;28;20242;-78
2022/10/30 14:35:24;;;;;;;13.25;4.72;;;;;;;;;;4988010;28;20701;-78
2022/10/30 14:37:57;;;;;;;8.55;4.95;;;;;;;;;;4993911;28;20297;-78
2022/10/30 14:40:35;;;;;;;15.02;5.35;;;;;;;;;;4983030;28;20229;-78
2022/10/30 14:43:07;;;;;;;8.15;4.53;;;;;;;;;;4994516;28;20229;-78
2022/10/30 14:45:42;;;;;;;8.43;4.68;;;;;;;;;;4995226;28;20252;-79
2022/10/30 14:48:16;;;;;;;12.93;5.03;;;;;;;;;;4993135;28;20208;-78
2022/10/30 14:50:55;;;;;;;9.85;4.68;;;;;;;;;;4995539;28;20275;-79
2022/10/30 14:53:33;;;;;;;12.95;5.32;;;;;;;;;;4994602;28;20307;-78
2022/10/30 14:56:06;;;;;;;11.00;4.53;;;;;;;;;;4991153;28;20193;-78
2022/10/30 14:58:36;;;;;;;13.63;5.25;;;;;;;;;;4995879;28;20643;-78